sensor_id;sensor_type;location;lat;lon;timestamp;pressure;altitude;pressure_sealevel;temperature;humidity
70370;BME280;57790;51.356;-2.906;2022-07-23T00:00:06;102059.31;;;18.42;59.18
70370;BME280;57790;51.356;-2.906;2022-07-23T00:03:08;102051.03;;;18.29;58.12
70370;BME280;57790;51.356;-2.906;2022-07-23T00:06:08;102048.16;;;18.31;58.39
70370;BME280;57790;51.356;-2.906;2022-07-23T00:09:08;102050.94;;;18.23;58.14
70370;BME280;57790;51.356;-2.906;2022-07-23T00:12:09;102056.66;;;18.20;56.99
70370;BME280;57790;51.356;-2.906;2022-07-23T00:15:09;102055.44;;;18.22;58.28
70370;BME280;57790;51.356;-2.906;2022-07-23T00:18:10;102054.22;;;18.10;56.83
70370;BME280;57790;51.356;-2.906;2022-07-23T00:21:10;102051.34;;;18.11;57.85
70370;BME280;57790;51.356;-2.906;2022-07-23T00:24:11;102052.13;;;18.20;57.93
70370;BME280;57790;51.356;-2.906;2022-07-23T00:27:11;102052.47;;;18.17;57.78
70370;BME280;57790;51.356;-2.906;2022-07-23T00:30:12;102052.38;;;18.10;57.88
70370;BME280;57790;51.356;-2.906;2022-07-23T00:33:13;102048.72;;;18.03;58.25
70370;BME280;57790;51.356;-2.906;2022-07-23T00:36:13;102057.13;;;18.00;57.94
70370;BME280;57790;51.356;-2.906;2022-07-23T00:39:13;102055.00;;;17.96;58.59
70370;BME280;57790;51.356;-2.906;2022-07-23T00:42:14;102046.16;;;17.87;57.79
70370;BME280;57790;51.356;-2.906;2022-07-23T00:45:14;102048.81;;;17.95;59.39
70370;BME280;57790;51.356;-2.906;2022-07-23T00:48:15;102054.94;;;18.04;58.25
70370;BME280;57790;51.356;-2.906;2022-07-23T00:51:16;102040.75;;;17.95;59.26
70370;BME280;57790;51.356;-2.906;2022-07-23T00:54:17;102027.00;;;17.90;60.16
70370;BME280;57790;51.356;-2.906;2022-07-23T00:57:18;102029.78;;;17.82;59.93
70370;BME280;57790;51.356;-2.906;2022-07-23T01:00:18;102029.88;;;17.89;60.33
70370;BME280;57790;51.356;-2.906;2022-07-23T01:03:19;102018.59;;;17.93;60.56
70370;BME280;57790;51.356;-2.906;2022-07-23T01:06:19;102023.13;;;17.93;61.43
70370;BME280;57790;51.356;-2.906;2022-07-23T01:09:20;102015.63;;;17.88;61.10
70370;BME280;57790;51.356;-2.906;2022-07-23T01:12:20;102019.34;;;17.87;61.61
70370;BME280;57790;51.356;-2.906;2022-07-23T01:15:21;102014.97;;;17.86;61.33
70370;BME280;57790;51.356;-2.906;2022-07-23T01:18:21;102021.38;;;17.85;60.82
70370;BME280;57790;51.356;-2.906;2022-07-23T01:21:22;102020.09;;;17.73;61.26
70370;BME280;57790;51.356;-2.906;2022-07-23T01:24:22;102015.09;;;17.70;61.07
70370;BME280;57790;51.356;-2.906;2022-07-23T01:27:23;102010.06;;;17.67;61.17
70370;BME280;57790;51.356;-2.906;2022-07-23T01:30:23;102012.88;;;17.73;61.59
70370;BME280;57790;51.356;-2.906;2022-07-23T01:33:24;102011.50;;;17.77;61.94
70370;BME280;57790;51.356;-2.906;2022-07-23T01:36:24;102021.13;;;17.72;61.92
70370;BME280;57790;51.356;-2.906;2022-07-23T01:39:25;102019.09;;;17.74;62.59
70370;BME280;57790;51.356;-2.906;2022-07-23T01:42:25;102017.88;;;17.76;62.09
70370;BME280;57790;51.356;-2.906;2022-07-23T01:45:25;102019.22;;;17.80;62.68
70370;BME280;57790;51.356;-2.906;2022-07-23T01:48:26;102022.25;;;17.77;61.93
70370;BME280;57790;51.356;-2.906;2022-07-23T01:51:26;102028.16;;;17.73;62.55
70370;BME280;57790;51.356;-2.906;2022-07-23T01:54:28;102024.63;;;17.64;62.41
70370;BME280;57790;51.356;-2.906;2022-07-23T01:57:29;102032.69;;;17.64;62.54
70370;BME280;57790;51.356;-2.906;2022-07-23T02:00:29;102037.91;;;17.66;62.64
70370;BME280;57790;51.356;-2.906;2022-07-23T02:03:30;102028.16;;;17.65;62.75
70370;BME280;57790;51.356;-2.906;2022-07-23T02:06:30;102030.00;;;17.64;62.30
70370;BME280;57790;51.356;-2.906;2022-07-23T02:09:31;102034.72;;;17.62;63.16
70370;BME280;57790;51.356;-2.906;2022-07-23T02:12:32;102039.25;;;17.62;63.29
70370;BME280;57790;51.356;-2.906;2022-07-23T02:15:32;102030.19;;;17.63;63.54
70370;BME280;57790;51.356;-2.906;2022-07-23T02:18:33;102024.06;;;17.54;63.21
70370;BME280;57790;51.356;-2.906;2022-07-23T02:21:33;102031.56;;;17.59;63.81
70370;BME280;57790;51.356;-2.906;2022-07-23T02:24:33;102027.69;;;17.61;63.94
70370;BME280;57790;51.356;-2.906;2022-07-23T02:27:35;102021.19;;;17.55;63.66
70370;BME280;57790;51.356;-2.906;2022-07-23T02:30:35;102017.34;;;17.50;63.97
70370;BME280;57790;51.356;-2.906;2022-07-23T02:33:37;102019.19;;;17.49;64.20
70370;BME280;57790;51.356;-2.906;2022-07-23T02:36:38;102023.56;;;17.50;64.20
70370;BME280;57790;51.356;-2.906;2022-07-23T02:39:40;102026.41;;;17.49;64.15
70370;BME280;57790;51.356;-2.906;2022-07-23T02:42:40;102025.75;;;17.47;64.15
70370;BME280;57790;51.356;-2.906;2022-07-23T02:45:41;102024.78;;;17.40;64.70
70370;BME280;57790;51.356;-2.906;2022-07-23T02:48:41;102028.81;;;17.36;64.72
70370;BME280;57790;51.356;-2.906;2022-07-23T02:51:41;102029.00;;;17.34;64.71
70370;BME280;57790;51.356;-2.906;2022-07-23T02:54:42;102026.00;;;17.29;64.94
70370;BME280;57790;51.356;-2.906;2022-07-23T02:57:42;102020.66;;;17.29;65.26
70370;BME280;57790;51.356;-2.906;2022-07-23T03:00:43;102029.72;;;17.28;65.42
70370;BME280;57790;51.356;-2.906;2022-07-23T03:03:43;102027.06;;;17.20;65.61
70370;BME280;57790;51.356;-2.906;2022-07-23T03:06:44;102023.72;;;17.18;65.52
70370;BME280;57790;51.356;-2.906;2022-07-23T03:09:44;102029.25;;;17.16;65.73
70370;BME280;57790;51.356;-2.906;2022-07-23T03:12:44;102024.72;;;17.17;65.77
70370;BME280;57790;51.356;-2.906;2022-07-23T03:15:45;102015.56;;;17.11;65.54
70370;BME280;57790;51.356;-2.906;2022-07-23T03:18:45;102022.75;;;17.11;65.78
70370;BME280;57790;51.356;-2.906;2022-07-23T03:21:46;102014.38;;;17.06;66.06
70370;BME280;57790;51.356;-2.906;2022-07-23T03:24:46;102018.06;;;17.05;66.21
70370;BME280;57790;51.356;-2.906;2022-07-23T03:27:55;102020.28;;;17.01;66.25
70370;BME280;57790;51.356;-2.906;2022-07-23T03:30:56;102019.13;;;16.95;65.96
70370;BME280;57790;51.356;-2.906;2022-07-23T03:33:57;102024.97;;;16.91;66.25
70370;BME280;57790;51.356;-2.906;2022-07-23T03:36:58;102028.19;;;16.86;66.61
70370;BME280;57790;51.356;-2.906;2022-07-23T03:39:58;102029.38;;;16.84;66.94
70370;BME280;57790;51.356;-2.906;2022-07-23T03:42:58;102028.72;;;16.82;67.10
70370;BME280;57790;51.356;-2.906;2022-07-23T03:45:59;102026.69;;;16.84;67.30
70370;BME280;57790;51.356;-2.906;2022-07-23T03:48:59;102036.59;;;16.75;67.27
70370;BME280;57790;51.356;-2.906;2022-07-23T03:52:00;102032.91;;;16.60;67.66
70370;BME280;57790;51.356;-2.906;2022-07-23T03:55:01;102037.59;;;16.66;67.86
70370;BME280;57790;51.356;-2.906;2022-07-23T03:58:02;102030.06;;;16.70;67.96
70370;BME280;57790;51.356;-2.906;2022-07-23T04:01:02;102021.00;;;16.62;68.14
70370;BME280;57790;51.356;-2.906;2022-07-23T04:04:03;102026.53;;;16.61;67.84
70370;BME280;57790;51.356;-2.906;2022-07-23T04:07:04;102019.84;;;16.65;68.11
70370;BME280;57790;51.356;-2.906;2022-07-23T04:10:04;102004.78;;;16.64;67.96
70370;BME280;57790;51.356;-2.906;2022-07-23T04:13:05;102008.13;;;16.58;67.99
70370;BME280;57790;51.356;-2.906;2022-07-23T04:16:05;102008.31;;;16.56;68.18
70370;BME280;57790;51.356;-2.906;2022-07-23T04:19:06;102009.31;;;16.47;68.75
70370;BME280;57790;51.356;-2.906;2022-07-23T04:22:07;102011.00;;;16.48;68.95
70370;BME280;57790;51.356;-2.906;2022-07-23T04:25:08;102010.69;;;16.43;68.58
70370;BME280;57790;51.356;-2.906;2022-07-23T04:28:08;102015.19;;;16.43;68.79
70370;BME280;57790;51.356;-2.906;2022-07-23T04:31:09;102014.72;;;16.39;69.31
70370;BME280;57790;51.356;-2.906;2022-07-23T04:34:09;102005.66;;;16.40;69.05
70370;BME280;57790;51.356;-2.906;2022-07-23T04:37:10;102008.84;;;16.44;68.75
70370;BME280;57790;51.356;-2.906;2022-07-23T04:40:11;102001.16;;;16.41;69.41
70370;BME280;57790;51.356;-2.906;2022-07-23T04:43:12;102007.16;;;16.43;69.21
70370;BME280;57790;51.356;-2.906;2022-07-23T04:46:12;102017.88;;;16.43;69.58
70370;BME280;57790;51.356;-2.906;2022-07-23T04:49:13;102018.22;;;16.40;69.69
70370;BME280;57790;51.356;-2.906;2022-07-23T04:52:14;102022.22;;;16.52;69.30
70370;BME280;57790;51.356;-2.906;2022-07-23T04:55:15;102012.19;;;16.54;69.57
70370;BME280;57790;51.356;-2.906;2022-07-23T04:58:16;102015.69;;;16.54;69.73
70370;BME280;57790;51.356;-2.906;2022-07-23T05:01:16;102017.31;;;16.63;69.80
70370;BME280;57790;51.356;-2.906;2022-07-23T05:04:17;102019.50;;;16.60;69.46
70370;BME280;57790;51.356;-2.906;2022-07-23T05:07:17;102018.19;;;16.56;69.83
70370;BME280;57790;51.356;-2.906;2022-07-23T05:10:18;102014.84;;;16.54;70.00
70370;BME280;57790;51.356;-2.906;2022-07-23T05:13:18;102011.00;;;16.56;70.40
70370;BME280;57790;51.356;-2.906;2022-07-23T05:16:18;102006.28;;;16.58;69.96
70370;BME280;57790;51.356;-2.906;2022-07-23T05:19:19;102006.78;;;16.62;70.04
70370;BME280;57790;51.356;-2.906;2022-07-23T05:22:19;102006.28;;;16.58;69.88
70370;BME280;57790;51.356;-2.906;2022-07-23T05:25:20;102005.13;;;16.61;69.32
70370;BME280;57790;51.356;-2.906;2022-07-23T05:28:20;102005.47;;;16.58;69.24
70370;BME280;57790;51.356;-2.906;2022-07-23T05:31:21;101996.47;;;16.51;69.36
70370;BME280;57790;51.356;-2.906;2022-07-23T05:34:21;102002.13;;;16.48;69.36
70370;BME280;57790;51.356;-2.906;2022-07-23T05:37:21;101996.44;;;16.59;69.32
70370;BME280;57790;51.356;-2.906;2022-07-23T05:40:22;102002.78;;;16.66;68.68
70370;BME280;57790;51.356;-2.906;2022-07-23T05:43:23;102008.66;;;16.70;68.76
70370;BME280;57790;51.356;-2.906;2022-07-23T05:46:24;102009.66;;;16.69;68.21
70370;BME280;57790;51.356;-2.906;2022-07-23T05:49:24;102008.13;;;16.74;68.39
70370;BME280;57790;51.356;-2.906;2022-07-23T05:52:25;102015.50;;;16.80;67.98
70370;BME280;57790;51.356;-2.906;2022-07-23T05:55:25;102014.31;;;16.83;68.12
70370;BME280;57790;51.356;-2.906;2022-07-23T05:58:25;102024.53;;;16.79;68.58
70370;BME280;57790;51.356;-2.906;2022-07-23T06:01:26;102022.19;;;16.84;68.15
70370;BME280;57790;51.356;-2.906;2022-07-23T06:04:27;102022.19;;;16.76;68.72
70370;BME280;57790;51.356;-2.906;2022-07-23T06:07:27;102016.00;;;16.76;69.07
70370;BME280;57790;51.356;-2.906;2022-07-23T06:10:27;102015.31;;;16.82;68.79
70370;BME280;57790;51.356;-2.906;2022-07-23T06:13:28;102011.59;;;16.91;68.90
70370;BME280;57790;51.356;-2.906;2022-07-23T06:16:28;102016.06;;;17.07;68.52
70370;BME280;57790;51.356;-2.906;2022-07-23T06:19:29;102001.78;;;17.14;68.45
70370;BME280;57790;51.356;-2.906;2022-07-23T06:22:29;101992.06;;;17.21;68.02
70370;BME280;57790;51.356;-2.906;2022-07-23T06:25:30;102004.88;;;17.34;67.84
70370;BME280;57790;51.356;-2.906;2022-07-23T06:28:30;102014.75;;;17.34;67.23
70370;BME280;57790;51.356;-2.906;2022-07-23T06:31:30;102012.91;;;17.34;67.23
70370;BME280;57790;51.356;-2.906;2022-07-23T06:34:31;102006.59;;;17.27;66.87
70370;BME280;57790;51.356;-2.906;2022-07-23T06:37:31;102009.53;;;17.40;66.63
70370;BME280;57790;51.356;-2.906;2022-07-23T06:40:31;102006.47;;;17.51;66.59
70370;BME280;57790;51.356;-2.906;2022-07-23T06:43:32;102004.44;;;17.53;65.94
70370;BME280;57790;51.356;-2.906;2022-07-23T06:46:32;102005.38;;;17.69;65.63
70370;BME280;57790;51.356;-2.906;2022-07-23T06:49:33;102003.78;;;17.82;65.19
70370;BME280;57790;51.356;-2.906;2022-07-23T06:52:34;102007.66;;;17.80;64.97
70370;BME280;57790;51.356;-2.906;2022-07-23T06:55:34;102011.91;;;17.66;65.00
70370;BME280;57790;51.356;-2.906;2022-07-23T06:58:38;102013.25;;;17.70;65.12
70370;BME280;57790;51.356;-2.906;2022-07-23T07:01:38;102013.03;;;17.80;65.08
70370;BME280;57790;51.356;-2.906;2022-07-23T07:04:39;102013.97;;;17.87;64.75
70370;BME280;57790;51.356;-2.906;2022-07-23T07:07:39;102022.97;;;17.71;64.87
70370;BME280;57790;51.356;-2.906;2022-07-23T07:10:40;102016.94;;;17.61;64.84
70370;BME280;57790;51.356;-2.906;2022-07-23T07:13:40;102028.06;;;17.50;65.38
70370;BME280;57790;51.356;-2.906;2022-07-23T07:16:40;102018.81;;;17.61;65.55
70370;BME280;57790;51.356;-2.906;2022-07-23T07:19:41;102015.56;;;17.73;65.62
70370;BME280;57790;51.356;-2.906;2022-07-23T07:22:41;102012.44;;;18.07;64.22
70370;BME280;57790;51.356;-2.906;2022-07-23T07:25:42;102008.66;;;18.02;64.42
70370;BME280;57790;51.356;-2.906;2022-07-23T07:28:42;102010.91;;;17.90;65.15
70370;BME280;57790;51.356;-2.906;2022-07-23T07:31:43;102009.66;;;18.01;65.15
70370;BME280;57790;51.356;-2.906;2022-07-23T07:34:43;102007.47;;;18.42;64.11
70370;BME280;57790;51.356;-2.906;2022-07-23T07:37:43;102011.31;;;18.77;62.96
70370;BME280;57790;51.356;-2.906;2022-07-23T07:40:44;102006.03;;;18.69;63.28
70370;BME280;57790;51.356;-2.906;2022-07-23T07:43:44;102000.25;;;18.57;63.02
70370;BME280;57790;51.356;-2.906;2022-07-23T07:46:45;102018.59;;;18.54;63.24
70370;BME280;57790;51.356;-2.906;2022-07-23T07:49:45;102008.31;;;18.57;63.25
70370;BME280;57790;51.356;-2.906;2022-07-23T07:52:46;102012.72;;;18.88;62.58
70370;BME280;57790;51.356;-2.906;2022-07-23T07:55:46;102012.06;;;19.00;62.46
70370;BME280;57790;51.356;-2.906;2022-07-23T07:58:47;102009.34;;;19.15;61.51
70370;BME280;57790;51.356;-2.906;2022-07-23T08:01:47;102017.88;;;19.04;62.40
70370;BME280;57790;51.356;-2.906;2022-07-23T08:04:48;102020.75;;;19.17;61.94
70370;BME280;57790;51.356;-2.906;2022-07-23T08:07:49;102017.84;;;19.33;61.54
70370;BME280;57790;51.356;-2.906;2022-07-23T08:10:49;102020.56;;;19.04;62.32
70370;BME280;57790;51.356;-2.906;2022-07-23T08:13:49;102022.34;;;18.97;62.94
70370;BME280;57790;51.356;-2.906;2022-07-23T08:16:50;102021.69;;;18.95;63.17
70370;BME280;57790;51.356;-2.906;2022-07-23T08:19:50;102024.03;;;18.98;63.15
70370;BME280;57790;51.356;-2.906;2022-07-23T08:22:52;102020.03;;;19.45;61.82
70370;BME280;57790;51.356;-2.906;2022-07-23T08:25:52;102013.28;;;19.85;60.42
70370;BME280;57790;51.356;-2.906;2022-07-23T08:28:53;102007.56;;;19.73;60.60
70370;BME280;57790;51.356;-2.906;2022-07-23T08:31:53;102014.50;;;20.10;59.79
70370;BME280;57790;51.356;-2.906;2022-07-23T08:34:54;102018.13;;;19.96;60.57
70370;BME280;57790;51.356;-2.906;2022-07-23T08:37:55;102021.78;;;20.59;58.64
70370;BME280;57790;51.356;-2.906;2022-07-23T08:40:56;102021.56;;;20.95;57.37
70370;BME280;57790;51.356;-2.906;2022-07-23T08:43:58;102008.50;;;20.58;59.00
70370;BME280;57790;51.356;-2.906;2022-07-23T08:47:01;102015.19;;;21.03;57.49
70370;BME280;57790;51.356;-2.906;2022-07-23T08:50:02;102001.34;;;21.13;57.59
70370;BME280;57790;51.356;-2.906;2022-07-23T08:53:05;102000.44;;;20.99;58.17
70370;BME280;57790;51.356;-2.906;2022-07-23T08:56:08;102007.88;;;20.97;57.92
70370;BME280;57790;51.356;-2.906;2022-07-23T08:59:08;102007.28;;;21.43;56.63
70370;BME280;57790;51.356;-2.906;2022-07-23T09:02:09;102018.25;;;21.28;56.72
70370;BME280;57790;51.356;-2.906;2022-07-23T09:05:10;102013.13;;;21.12;57.64
70370;BME280;57790;51.356;-2.906;2022-07-23T09:11:18;102005.09;;;21.73;55.82
70370;BME280;57790;51.356;-2.906;2022-07-23T09:14:39;102016.00;;;21.45;56.66
70370;BME280;57790;51.356;-2.906;2022-07-23T09:17:41;102017.47;;;21.47;57.16
70370;BME280;57790;51.356;-2.906;2022-07-23T09:20:43;102010.03;;;21.62;56.74
70370;BME280;57790;51.356;-2.906;2022-07-23T09:23:48;101993.69;;;22.37;54.91
70370;BME280;57790;51.356;-2.906;2022-07-23T09:26:49;102002.41;;;22.39;54.87
70370;BME280;57790;51.356;-2.906;2022-07-23T09:29:56;101999.09;;;22.50;54.20
70370;BME280;57790;51.356;-2.906;2022-07-23T09:36:10;101995.16;;;22.19;55.15
70370;BME280;57790;51.356;-2.906;2022-07-23T09:39:13;102004.66;;;21.76;56.57
70370;BME280;57790;51.356;-2.906;2022-07-23T09:42:17;102000.63;;;21.38;57.90
70370;BME280;57790;51.356;-2.906;2022-07-23T09:45:17;102001.69;;;21.44;57.71
70370;BME280;57790;51.356;-2.906;2022-07-23T09:48:17;101994.47;;;21.58;57.59
70370;BME280;57790;51.356;-2.906;2022-07-23T09:51:19;101995.84;;;21.34;58.31
70370;BME280;57790;51.356;-2.906;2022-07-23T09:54:39;101998.38;;;21.42;58.54
70370;BME280;57790;51.356;-2.906;2022-07-23T09:57:41;101992.72;;;21.37;58.21
70370;BME280;57790;51.356;-2.906;2022-07-23T10:00:43;102000.31;;;21.20;58.78
70370;BME280;57790;51.356;-2.906;2022-07-23T10:03:46;101994.44;;;21.03;59.27
70370;BME280;57790;51.356;-2.906;2022-07-23T10:06:47;101985.72;;;21.01;58.90
70370;BME280;57790;51.356;-2.906;2022-07-23T10:09:48;101990.94;;;21.09;59.58
70370;BME280;57790;51.356;-2.906;2022-07-23T10:12:50;101992.09;;;21.28;59.14
70370;BME280;57790;51.356;-2.906;2022-07-23T10:15:51;101991.28;;;21.34;58.82
70370;BME280;57790;51.356;-2.906;2022-07-23T10:18:52;101980.31;;;21.43;58.81
70370;BME280;57790;51.356;-2.906;2022-07-23T10:21:57;101992.56;;;21.52;58.56
70370;BME280;57790;51.356;-2.906;2022-07-23T10:25:26;102009.41;;;21.60;58.40
70370;BME280;57790;51.356;-2.906;2022-07-23T10:28:46;102007.13;;;21.64;58.23
70370;BME280;57790;51.356;-2.906;2022-07-23T10:31:58;102014.34;;;21.50;58.87
70370;BME280;57790;51.356;-2.906;2022-07-23T10:35:13;102012.06;;;21.54;59.05
70370;BME280;57790;51.356;-2.906;2022-07-23T10:38:29;102009.00;;;21.57;59.18
70370;BME280;57790;51.356;-2.906;2022-07-23T10:41:37;102009.63;;;21.65;59.10
70370;BME280;57790;51.356;-2.906;2022-07-23T10:44:46;102009.03;;;21.83;58.61
70370;BME280;57790;51.356;-2.906;2022-07-23T10:47:48;101999.28;;;22.02;58.32
70370;BME280;57790;51.356;-2.906;2022-07-23T10:51:12;101995.16;;;22.33;58.02
70370;BME280;57790;51.356;-2.906;2022-07-23T10:54:21;101994.28;;;22.52;57.93
70370;BME280;57790;51.356;-2.906;2022-07-23T10:57:26;101996.56;;;22.62;57.64
70370;BME280;57790;51.356;-2.906;2022-07-23T11:00:29;102003.59;;;22.69;57.57
70370;BME280;57790;51.356;-2.906;2022-07-23T11:03:32;102001.59;;;22.32;58.67
70370;BME280;57790;51.356;-2.906;2022-07-23T11:09:48;101998.44;;;21.95;59.57
70370;BME280;57790;51.356;-2.906;2022-07-23T11:12:49;102001.34;;;21.93;59.72
70370;BME280;57790;51.356;-2.906;2022-07-23T11:19:04;101987.19;;;21.65;60.86
70370;BME280;57790;51.356;-2.906;2022-07-23T11:22:05;101994.25;;;21.59;61.49
70370;BME280;57790;51.356;-2.906;2022-07-23T11:25:05;102003.38;;;21.58;61.56
70370;BME280;57790;51.356;-2.906;2022-07-23T11:28:12;102003.59;;;21.63;62.05
70370;BME280;57790;51.356;-2.906;2022-07-23T11:31:19;101999.66;;;21.66;62.44
70370;BME280;57790;51.356;-2.906;2022-07-23T11:37:39;101987.00;;;21.66;62.12
70370;BME280;57790;51.356;-2.906;2022-07-23T11:40:41;101979.75;;;21.74;62.04
70370;BME280;57790;51.356;-2.906;2022-07-23T11:43:41;101977.06;;;22.00;61.21
70370;BME280;57790;51.356;-2.906;2022-07-23T11:47:00;101970.44;;;22.09;60.29
70370;BME280;57790;51.356;-2.906;2022-07-23T11:50:03;101970.44;;;22.09;60.78
70370;BME280;57790;51.356;-2.906;2022-07-23T11:53:04;101974.34;;;21.74;61.55
70370;BME280;57790;51.356;-2.906;2022-07-23T11:56:08;101978.06;;;21.66;61.93
70370;BME280;57790;51.356;-2.906;2022-07-23T11:59:09;101985.34;;;21.72;61.68
70370;BME280;57790;51.356;-2.906;2022-07-23T12:02:09;101973.06;;;21.63;61.19
70370;BME280;57790;51.356;-2.906;2022-07-23T12:05:18;101976.63;;;21.70;61.68
70370;BME280;57790;51.356;-2.906;2022-07-23T12:08:18;101985.56;;;21.77;61.78
70370;BME280;57790;51.356;-2.906;2022-07-23T12:11:19;101988.84;;;21.59;62.00
70370;BME280;57790;51.356;-2.906;2022-07-23T12:14:20;101987.00;;;21.80;61.39
70370;BME280;57790;51.356;-2.906;2022-07-23T12:17:27;101983.28;;;22.27;60.11
70370;BME280;57790;51.356;-2.906;2022-07-23T12:20:32;101979.75;;;22.40;59.77
70370;BME280;57790;51.356;-2.906;2022-07-23T12:23:32;101987.28;;;22.18;60.37
70370;BME280;57790;51.356;-2.906;2022-07-23T12:26:32;101989.34;;;22.29;60.21
70370;BME280;57790;51.356;-2.906;2022-07-23T12:29:36;101996.41;;;22.23;61.34
70370;BME280;57790;51.356;-2.906;2022-07-23T12:32:43;102000.97;;;22.03;62.06
70370;BME280;57790;51.356;-2.906;2022-07-23T12:35:46;101990.75;;;21.92;62.08
70370;BME280;57790;51.356;-2.906;2022-07-23T12:38:48;101988.06;;;21.72;63.11
70370;BME280;57790;51.356;-2.906;2022-07-23T12:41:52;101995.69;;;21.49;64.58
70370;BME280;57790;51.356;-2.906;2022-07-23T12:45:07;102007.72;;;21.53;64.58
70370;BME280;57790;51.356;-2.906;2022-07-23T12:48:08;101989.66;;;21.53;64.32
70370;BME280;57790;51.356;-2.906;2022-07-23T12:51:17;101993.03;;;21.75;63.56
70370;BME280;57790;51.356;-2.906;2022-07-23T12:54:18;101978.06;;;21.79;63.47
70370;BME280;57790;51.356;-2.906;2022-07-23T12:57:18;101970.78;;;22.59;61.49
70370;BME280;57790;51.356;-2.906;2022-07-23T13:00:19;101954.88;;;23.72;58.39
70370;BME280;57790;51.356;-2.906;2022-07-23T13:03:34;101944.53;;;24.37;56.17
70370;BME280;57790;51.356;-2.906;2022-07-23T13:06:38;101952.00;;;23.67;57.24
70370;BME280;57790;51.356;-2.906;2022-07-23T13:09:39;101954.66;;;23.04;59.76
70370;BME280;57790;51.356;-2.906;2022-07-23T13:12:39;101945.94;;;22.95;60.21
70370;BME280;57790;51.356;-2.906;2022-07-23T13:15:39;101949.59;;;22.49;60.70
70370;BME280;57790;51.356;-2.906;2022-07-23T13:18:40;101955.63;;;22.58;62.23
70370;BME280;57790;51.356;-2.906;2022-07-23T13:21:41;101960.19;;;22.51;62.99
70370;BME280;57790;51.356;-2.906;2022-07-23T13:24:41;101949.81;;;22.48;62.90
70370;BME280;57790;51.356;-2.906;2022-07-23T13:27:42;101962.06;;;22.57;62.69
70370;BME280;57790;51.356;-2.906;2022-07-23T13:30:42;101952.28;;;22.56;63.01
70370;BME280;57790;51.356;-2.906;2022-07-23T13:33:43;101946.88;;;23.14;61.67
70370;BME280;57790;51.356;-2.906;2022-07-23T13:36:43;101937.47;;;24.36;57.62
70370;BME280;57790;51.356;-2.906;2022-07-23T13:39:44;101929.53;;;24.71;56.26
70370;BME280;57790;51.356;-2.906;2022-07-23T13:42:44;101909.75;;;25.19;54.38
70370;BME280;57790;51.356;-2.906;2022-07-23T13:45:45;101902.59;;;25.90;53.06
70370;BME280;57790;51.356;-2.906;2022-07-23T13:48:45;101909.19;;;25.29;53.25
70370;BME280;57790;51.356;-2.906;2022-07-23T13:51:46;101915.94;;;24.59;55.68
70370;BME280;57790;51.356;-2.906;2022-07-23T13:54:47;101908.31;;;24.31;57.48
70370;BME280;57790;51.356;-2.906;2022-07-23T13:57:49;101912.22;;;23.92;58.50
70370;BME280;57790;51.356;-2.906;2022-07-23T14:00:52;101914.69;;;23.94;58.84
70370;BME280;57790;51.356;-2.906;2022-07-23T14:03:53;101918.84;;;23.71;59.80
70370;BME280;57790;51.356;-2.906;2022-07-23T14:06:53;101918.31;;;23.25;60.79
70370;BME280;57790;51.356;-2.906;2022-07-23T14:09:54;101914.75;;;22.93;60.64
70370;BME280;57790;51.356;-2.906;2022-07-23T14:12:54;101913.53;;;22.89;61.89
70370;BME280;57790;51.356;-2.906;2022-07-23T14:15:58;101909.78;;;22.76;62.19
70370;BME280;57790;51.356;-2.906;2022-07-23T14:18:59;101908.31;;;23.25;60.83
70370;BME280;57790;51.356;-2.906;2022-07-23T14:21:59;101900.00;;;23.83;58.87
70370;BME280;57790;51.356;-2.906;2022-07-23T14:25:00;101895.97;;;24.11;58.73
70370;BME280;57790;51.356;-2.906;2022-07-23T14:28:00;101894.41;;;23.78;58.83
70370;BME280;57790;51.356;-2.906;2022-07-23T14:31:01;101896.63;;;23.88;57.12
70370;BME280;57790;51.356;-2.906;2022-07-23T14:34:01;101879.94;;;24.34;55.18
70370;BME280;57790;51.356;-2.906;2022-07-23T14:37:02;101876.34;;;24.15;55.47
70370;BME280;57790;51.356;-2.906;2022-07-23T14:40:03;101889.69;;;24.17;55.02
70370;BME280;57790;51.356;-2.906;2022-07-23T14:43:03;101888.78;;;23.80;55.18
70370;BME280;57790;51.356;-2.906;2022-07-23T14:46:04;101883.91;;;23.63;55.65
70370;BME280;57790;51.356;-2.906;2022-07-23T14:49:04;101877.53;;;23.51;55.64
70370;BME280;57790;51.356;-2.906;2022-07-23T14:52:05;101877.75;;;23.50;56.29
70370;BME280;57790;51.356;-2.906;2022-07-23T14:55:06;101874.22;;;23.49;56.67
70370;BME280;57790;51.356;-2.906;2022-07-23T14:58:07;101878.84;;;23.42;57.62
70370;BME280;57790;51.356;-2.906;2022-07-23T15:01:08;101892.03;;;23.00;58.61
70370;BME280;57790;51.356;-2.906;2022-07-23T15:04:08;101892.94;;;22.88;58.96
70370;BME280;57790;51.356;-2.906;2022-07-23T15:07:09;101889.53;;;22.99;58.58
70370;BME280;57790;51.356;-2.906;2022-07-23T15:10:09;101878.84;;;23.10;57.58
70370;BME280;57790;51.356;-2.906;2022-07-23T15:13:10;101878.25;;;23.08;57.24
70370;BME280;57790;51.356;-2.906;2022-07-23T15:16:10;101875.97;;;23.05;56.97
70370;BME280;57790;51.356;-2.906;2022-07-23T15:19:10;101887.09;;;22.84;57.94
70370;BME280;57790;51.356;-2.906;2022-07-23T15:22:11;101888.88;;;22.52;59.04
70370;BME280;57790;51.356;-2.906;2022-07-23T15:25:11;101883.06;;;22.48;59.64
70370;BME280;57790;51.356;-2.906;2022-07-23T15:28:12;101885.19;;;22.26;60.53
70370;BME280;57790;51.356;-2.906;2022-07-23T15:31:12;101889.38;;;22.22;60.19
70370;BME280;57790;51.356;-2.906;2022-07-23T15:34:12;101887.50;;;22.30;60.00
70370;BME280;57790;51.356;-2.906;2022-07-23T15:37:13;101889.16;;;22.24;59.84
70370;BME280;57790;51.356;-2.906;2022-07-23T15:40:13;101877.16;;;22.13;59.25
70370;BME280;57790;51.356;-2.906;2022-07-23T15:43:13;101879.00;;;22.19;58.82
70370;BME280;57790;51.356;-2.906;2022-07-23T15:46:14;101872.34;;;22.02;58.81
70370;BME280;57790;51.356;-2.906;2022-07-23T15:49:16;101863.41;;;21.95;58.91
70370;BME280;57790;51.356;-2.906;2022-07-23T15:52:17;101873.78;;;21.98;59.35